»·PEaware :: DAL1093 KSAN-KSEA

DAL1093 :: KSAN-KSEA

FLIGHT INFORMATION

Flight Status: Arrived
Operator:
Delta Air Lines
More flights by this operator :: More flights under this callsign
Pilot: Ryan B. (8502)
Aircraft: BOEING 737-800
(B738)
More flights by this aircraft type
Origin: KSAN San Diego Intl-Lindbergh
United States
Destination: KSEA Seattle-Tacoma Intl
United States
More flights between these airports :: More routes between these airports
Route: PADRZ2 EHF SHIMR LKV BTG HAWKZ6
File this flight plan on PilotEdge
Remarks:
Altitude:
(Current/Filed)
34,000ft
Speed:
(Current/Filed)
462kts
Departed: 28-Dec-17 02:20 PM
Arrived: 28-Dec-17 05:06 PM
Distance/Time
Traveled:
913nm/2:46
Distance/Time
To Go:
Arrived

Flight Plot

Page will automatically refresh every two minutes.

Flight plan parsing failed; only flown route is shown


Map Options




Map Legend


Flown Route
Filed Route
Departure Airport
Arrival Airport
Navaid (VOR, NDB)
Fix

Horizontal Profiles

Position Reports

Time Latitude Longitude Heading Altitude Ground
Speed
28-Dec-17 14:04 32.733075 -117.200634 280 17ft 0kts
28-Dec-17 14:05 32.733075 -117.200634 280 17ft 0kts
28-Dec-17 14:06 32.733075 -117.200634 280 17ft 0kts
28-Dec-17 14:07 32.733075 -117.200634 280 17ft 0kts
28-Dec-17 14:08 32.733075 -117.200634 280 17ft 0kts
28-Dec-17 14:09 32.733075 -117.200634 280 17ft 0kts
28-Dec-17 14:10 32.733075 -117.200634 280 17ft 0kts
28-Dec-17 14:11 32.733075 -117.200634 280 17ft 0kts
28-Dec-17 14:12 32.733075 -117.200634 280 17ft 0kts
28-Dec-17 14:13 32.733075 -117.200634 280 17ft 0kts
28-Dec-17 14:14 32.733075 -117.200634 280 17ft 0kts
28-Dec-17 14:15 32.733075 -117.200634 280 17ft 0kts
28-Dec-17 14:16 32.733008 -117.200201 280 17ft 2kts
28-Dec-17 14:17 32.732796 -117.199978 16 17ft 0kts
28-Dec-17 14:18 32.732796 -117.199978 16 17ft 0kts
28-Dec-17 14:19 32.733486 -117.199805 11 17ft 5kts
28-Dec-17 14:20 32.734598 -117.198334 106 17ft 10kts
28-Dec-17 14:21 32.733634 -117.194222 105 21ft 15kts
28-Dec-17 14:22 32.732199 -117.188378 109 18ft 21kts
28-Dec-17 14:23 32.730400 -117.180921 106 17ft 24kts
28-Dec-17 14:24 32.729738 -117.175965 62 24ft 9kts
28-Dec-17 14:25 32.730221 -117.175891 285 24ft 0kts
28-Dec-17 14:26 32.737759 -117.207293 287 755ft 156kts
28-Dec-17 14:27 32.758400 -117.259060 310 2642ft 191kts
28-Dec-17 14:28 32.794008 -117.311230 310 4782ft 219kts
28-Dec-17 14:29 32.834159 -117.372088 309 6938ft 257kts
28-Dec-17 14:30 32.880474 -117.443951 309 9626ft 287kts
28-Dec-17 14:31 32.931362 -117.522913 309 12207ft 317kts
28-Dec-17 14:32 32.986732 -117.609399 309 14750ft 342kts
28-Dec-17 14:33 33.045308 -117.700901 309 17503ft 354kts
28-Dec-17 14:34 33.114810 -117.781677 322 20097ft 361kts
28-Dec-17 14:35 33.188783 -117.856751 322 22506ft 371kts
28-Dec-17 14:36 33.268944 -117.935414 323 24760ft 382kts
28-Dec-17 14:37 33.357663 -118.002370 345 26847ft 382kts
28-Dec-17 14:38 33.453713 -118.048904 338 29245ft 375kts
28-Dec-17 14:39 33.531001 -118.090034 338 30962ft 368kts
28-Dec-17 14:40 33.633721 -118.144551 338 32952ft 360kts
28-Dec-17 14:41 33.717744 -118.189011 338 34129ft 360kts
28-Dec-17 14:42 33.788948 -118.226575 338 34151ft 383kts
28-Dec-17 14:43 33.896647 -118.283275 338 34146ft 416kts
28-Dec-17 14:44 33.997839 -118.336372 338 34140ft 419kts
28-Dec-17 14:45 34.082890 -118.380872 338 34143ft 419kts
28-Dec-17 14:46 34.177878 -118.430439 339 34149ft 419kts
28-Dec-17 14:47 34.297655 -118.492733 339 34155ft 419kts
28-Dec-17 14:48 34.384585 -118.537790 339 34168ft 419kts
28-Dec-17 14:49 34.490063 -118.592299 339 34169ft 419kts
28-Dec-17 14:50 34.596540 -118.647133 339 34182ft 419kts
28-Dec-17 14:51 34.698764 -118.699658 339 34267ft 418kts
28-Dec-17 14:52 34.805996 -118.754523 339 34305ft 419kts
28-Dec-17 14:53 34.913024 -118.809070 338 34306ft 418kts
28-Dec-17 14:54 35.019562 -118.863191 337 34298ft 417kts
28-Dec-17 14:55 35.125442 -118.916826 337 34290ft 418kts
28-Dec-17 14:56 35.231219 -118.970197 337 34277ft 418kts
28-Dec-17 14:57 35.336970 -119.023383 337 34275ft 419kts
28-Dec-17 14:58 35.444425 -119.077229 337 34274ft 419kts
28-Dec-17 14:59 35.551269 -119.121225 342 34269ft 420kts
28-Dec-17 15:00 35.662081 -119.161439 342 34264ft 420kts
28-Dec-17 15:01 35.773250 -119.201894 342 34265ft 420kts
28-Dec-17 15:02 35.882636 -119.241698 342 34267ft 420kts
28-Dec-17 15:03 35.993465 -119.282028 342 34276ft 420kts
28-Dec-17 15:04 36.105051 -119.322631 342 34278ft 420kts
28-Dec-17 15:05 36.211160 -119.361239 342 34284ft 420kts
28-Dec-17 15:06 36.321910 -119.401534 342 34283ft 420kts
28-Dec-17 15:07 36.432545 -119.441785 342 34282ft 420kts
28-Dec-17 15:08 36.544103 -119.482371 342 34281ft 420kts
28-Dec-17 15:09 36.655871 -119.523029 343 34280ft 420kts
28-Dec-17 15:10 36.755393 -119.559230 343 34279ft 420kts
28-Dec-17 15:11 36.865068 -119.599124 343 34278ft 420kts
28-Dec-17 15:12 36.976409 -119.639617 342 34278ft 420kts
28-Dec-17 15:13 37.007025 -119.650742 342 34276ft 418kts
28-Dec-17 15:14 37.007025 -119.650742 342 34276ft 418kts
28-Dec-17 15:15 37.007025 -119.650742 342 34276ft 418kts
28-Dec-17 15:16 37.035367 -119.661061 341 34273ft 417kts
28-Dec-17 15:17 37.141250 -119.699593 340 34273ft 416kts
28-Dec-17 15:18 37.251184 -119.739576 340 34274ft 416kts
28-Dec-17 15:19 37.360839 -119.779454 340 34276ft 416kts
28-Dec-17 15:20 37.470762 -119.819416 340 34276ft 416kts
28-Dec-17 15:21 37.581085 -119.859518 340 34267ft 415kts
28-Dec-17 15:22 37.691290 -119.899579 340 34266ft 415kts
28-Dec-17 15:23 37.801558 -119.939671 340 34270ft 416kts
28-Dec-17 15:24 37.912266 -119.979897 340 34256ft 416kts
28-Dec-17 15:25 38.023318 -120.020251 340 34251ft 416kts
28-Dec-17 15:26 38.130617 -120.059253 340 34278ft 416kts
28-Dec-17 15:27 38.241606 -120.097694 349 34302ft 420kts
28-Dec-17 15:28 38.358282 -120.108339 351 34319ft 422kts
28-Dec-17 15:29 38.475065 -120.119560 351 34329ft 422kts
28-Dec-17 15:30 38.591439 -120.130772 351 34363ft 422kts
28-Dec-17 15:31 38.707237 -120.141936 351 34362ft 421kts
28-Dec-17 15:32 38.821367 -120.152934 351 34364ft 421kts
28-Dec-17 15:33 38.937946 -120.164140 350 34359ft 421kts
28-Dec-17 15:34 39.054312 -120.175350 349 34360ft 421kts
28-Dec-17 15:35 39.166616 -120.186191 349 34359ft 421kts
28-Dec-17 15:36 39.281946 -120.197308 349 34356ft 422kts
28-Dec-17 15:37 39.396400 -120.208340 349 34354ft 422kts
28-Dec-17 15:38 39.513249 -120.219604 349 34352ft 422kts
28-Dec-17 15:39 39.629828 -120.230842 349 34337ft 422kts
28-Dec-17 15:40 39.746477 -120.242090 349 34324ft 422kts
28-Dec-17 15:41 39.863182 -120.253345 349 34322ft 422kts
28-Dec-17 15:42 39.979665 -120.264577 349 34320ft 421kts
28-Dec-17 15:43 40.095193 -120.275718 349 34307ft 422kts
28-Dec-17 15:44 40.210253 -120.286817 349 34301ft 421kts
28-Dec-17 15:45 40.326610 -120.298038 349 34300ft 421kts
28-Dec-17 15:46 40.443257 -120.309293 349 34299ft 421kts
28-Dec-17 15:47 40.560056 -120.320561 349 34298ft 422kts
28-Dec-17 15:48 40.676531 -120.331796 349 34296ft 422kts
28-Dec-17 15:49 40.792651 -120.343001 349 34295ft 422kts
28-Dec-17 15:50 40.909017 -120.354230 349 34279ft 422kts
28-Dec-17 15:51 41.025363 -120.365437 348 34266ft 420kts
28-Dec-17 15:52 41.136352 -120.376145 347 34271ft 418kts
28-Dec-17 15:53 41.252245 -120.387344 347 34270ft 418kts
28-Dec-17 15:54 41.367784 -120.398496 347 34269ft 418kts
28-Dec-17 15:55 41.483262 -120.409641 347 34269ft 418kts
28-Dec-17 15:56 41.598778 -120.420790 347 34267ft 418kts
28-Dec-17 15:57 41.713174 -120.431832 347 34266ft 418kts
28-Dec-17 15:58 41.826490 -120.442766 347 34262ft 418kts
28-Dec-17 15:59 41.942061 -120.453922 347 34256ft 417kts
28-Dec-17 16:00 42.057973 -120.465109 347 34255ft 418kts
28-Dec-17 16:01 42.172449 -120.476158 347 34261ft 418kts
28-Dec-17 16:02 42.288122 -120.487322 347 34259ft 419kts
28-Dec-17 16:03 42.403100 -120.498420 347 34259ft 418kts
28-Dec-17 16:04 42.515983 -120.521059 329 34276ft 398kts
28-Dec-17 16:05 42.615187 -120.584469 328 34256ft 397kts
28-Dec-17 16:06 42.714360 -120.648277 328 34255ft 397kts
28-Dec-17 16:07 42.812964 -120.711791 327 34267ft 396kts
28-Dec-17 16:08 42.912575 -120.775837 327 34265ft 395kts
28-Dec-17 16:09 43.011199 -120.839240 326 34264ft 391kts
28-Dec-17 16:10 43.107617 -120.901227 326 34213ft 390kts
28-Dec-17 16:11 43.204784 -120.963658 326 34121ft 390kts
28-Dec-17 16:12 43.302859 -121.026659 326 34110ft 392kts
28-Dec-17 16:13 43.401677 -121.090123 326 34109ft 395kts
28-Dec-17 16:14 43.501216 -121.154030 326 34107ft 397kts
28-Dec-17 16:15 43.600842 -121.217980 326 34107ft 398kts
28-Dec-17 16:16 43.700930 -121.282199 326 34103ft 398kts
28-Dec-17 16:17 43.802119 -121.347131 327 34101ft 406kts
28-Dec-17 16:18 43.904096 -121.412503 327 34102ft 405kts
28-Dec-17 16:19 44.006247 -121.478011 327 34101ft 405kts
28-Dec-17 16:20 44.107907 -121.543165 327 34100ft 405kts
28-Dec-17 16:21 44.204058 -121.604781 327 34104ft 405kts
28-Dec-17 16:22 44.298314 -121.665193 326 34117ft 404kts
28-Dec-17 16:23 44.400180 -121.730476 326 34114ft 404kts
28-Dec-17 16:24 44.500828 -121.794906 327 34111ft 404kts
28-Dec-17 16:25 44.601985 -121.859650 327 34111ft 405kts
28-Dec-17 16:26 44.703400 -121.924526 327 34127ft 405kts
28-Dec-17 16:27 44.803335 -121.988456 327 34162ft 404kts
28-Dec-17 16:28 44.905036 -122.053486 327 34162ft 404kts
28-Dec-17 16:29 45.005799 -122.117863 327 34162ft 399kts
28-Dec-17 16:30 45.103704 -122.180391 326 34161ft 389kts
28-Dec-17 16:31 45.194022 -122.238131 326 34163ft 387kts
28-Dec-17 16:32 45.287348 -122.297722 326 34160ft 388kts
28-Dec-17 16:33 45.378937 -122.356189 326 34161ft 387kts
28-Dec-17 16:34 45.469491 -122.413969 326 34157ft 387kts
28-Dec-17 16:35 45.559280 -122.471256 326 34151ft 387kts
28-Dec-17 16:36 45.649071 -122.528519 326 34150ft 388kts
28-Dec-17 16:37 45.742466 -122.587886 329 34143ft 390kts
28-Dec-17 16:38 45.846946 -122.616041 339 32874ft 403kts
28-Dec-17 16:39 45.951869 -122.642020 339 30358ft 390kts
28-Dec-17 16:40 46.054991 -122.667695 338 27900ft 380kts
28-Dec-17 16:41 46.147212 -122.687995 340 25965ft 369kts
28-Dec-17 16:42 46.238885 -122.706080 340 24295ft 364kts
28-Dec-17 16:43 46.331122 -122.723308 346 22622ft 363kts
28-Dec-17 16:44 46.429229 -122.726120 346 20831ft 357kts
28-Dec-17 16:45 46.522993 -122.729496 347 19116ft 350kts
28-Dec-17 16:46 46.616956 -122.732911 347 16879ft 352kts
28-Dec-17 16:47 46.703693 -122.735978 347 15476ft 331kts
28-Dec-17 16:48 46.790331 -122.727840 14 15511ft 358kts
28-Dec-17 16:49 46.869414 -122.639748 30 14319ft 376kts
28-Dec-17 16:50 46.934960 -122.566461 21 13235ft 349kts
28-Dec-17 16:51 47.024526 -122.524110 9 12188ft 307kts
28-Dec-17 16:52 47.092883 -122.496961 0 11352ft 297kts
28-Dec-17 16:53 47.142173 -122.488715 1 10310ft 305kts
28-Dec-17 16:54 47.202313 -122.478023 1 9374ft 296kts
28-Dec-17 16:55 47.274676 -122.467135 1 8445ft 282kts
28-Dec-17 16:56 47.324897 -122.459458 1 7874ft 271kts
28-Dec-17 16:57 47.395125 -122.455018 355 6931ft 266kts
28-Dec-17 16:58 47.444776 -122.455289 356 6254ft 262kts
28-Dec-17 16:59 47.507282 -122.455099 358 5632ft 244kts
28-Dec-17 17:00 47.567851 -122.451631 359 5496ft 236kts
28-Dec-17 17:01 47.628270 -122.448625 359 4352ft 226kts
28-Dec-17 17:02 47.684411 -122.435427 45 3543ft 204kts
28-Dec-17 17:03 47.697141 -122.375096 84 3540ft 195kts
28-Dec-17 17:04 47.690328 -122.317734 146 3549ft 189kts
28-Dec-17 17:05 47.653648 -122.309600 183 3543ft 183kts
28-Dec-17 17:06 47.616178 -122.309800 184 3392ft 163kts
28-Dec-17 17:07 47.585933 -122.310030 183 2808ft 149kts
28-Dec-17 17:08 47.553269 -122.310285 183 2184ft 141kts
28-Dec-17 17:09 47.518369 -122.310580 183 1504ft 140kts
28-Dec-17 17:10 47.484799 -122.310913 183 864ft 139kts
28-Dec-17 17:11 47.453189 -122.311075 180 418ft 79kts
28-Dec-17 17:12 47.445969 -122.308282 109 392ft 18kts
28-Dec-17 17:13 47.446922 -122.306179 8 397ft 3kts
28-Dec-17 17:14 47.448392 -122.303760 86 402ft 0kts
28-Dec-17 17:15 47.448392 -122.303760 86 402ft 0kts

Navigation Log

Ident Type
Flight plan parsing failed, navigation log unavailable